createdAt,value
2022-08-30T00:01:05.172Z,101427.16
2022-08-30T00:03:36.927Z,101421.06
2022-08-30T00:06:06.552Z,101425.41
2022-08-30T00:08:33.521Z,101427.13
2022-08-30T00:11:01.527Z,101415.72
2022-08-30T00:13:28.282Z,101433.25
2022-08-30T00:15:54.880Z,101421.84
2022-08-30T00:18:22.290Z,101420.13
2022-08-30T00:20:52.098Z,101420.16
2022-08-30T00:23:19.780Z,101431.56
2022-08-30T00:25:46.255Z,101428.97
2022-08-30T00:28:14.443Z,101424.63
2022-08-30T00:30:41.753Z,101414.94
2022-08-30T00:33:08.879Z,101429.91
2022-08-30T00:35:35.518Z,101424.63
2022-08-30T00:38:02.250Z,101418.50
2022-08-30T00:40:30.206Z,101432.56
2022-08-30T00:42:59.930Z,101426.44
2022-08-30T00:45:35.870Z,101427.28
2022-08-30T00:48:05.042Z,101427.34
2022-08-30T00:50:36.124Z,101427.34
2022-08-30T00:53:07.091Z,101418.56
2022-08-30T00:55:34.381Z,101421.22
2022-08-30T00:58:07.104Z,101422.13
2022-08-30T01:00:34.181Z,101421.22
2022-08-30T01:03:00.862Z,101422.97
2022-08-30T01:05:27.592Z,101420.34
2022-08-30T01:07:54.075Z,101423.84
2022-08-30T01:10:20.732Z,101429.09
2022-08-30T01:12:47.849Z,101427.38
2022-08-30T01:15:15.741Z,101426.47
2022-08-30T01:17:44.486Z,101423.84
2022-08-30T01:20:20.510Z,101412.47
2022-08-30T01:22:49.676Z,101429.13
2022-08-30T01:25:25.010Z,101409.88
2022-08-30T01:28:01.578Z,101423.88
2022-08-30T01:30:30.193Z,101417.75
2022-08-30T01:33:00.131Z,101418.59
2022-08-30T01:35:28.371Z,101417.72
2022-08-30T01:37:55.821Z,101420.34
2022-08-30T01:40:22.468Z,101425.59
2022-08-30T01:42:50.064Z,101422.09
2022-08-30T01:45:16.578Z,101428.91
2022-08-30T01:47:43.309Z,101421.94
2022-08-30T01:50:10.793Z,101422.78
2022-08-30T01:52:38.660Z,101420.19
2022-08-30T01:55:06.958Z,101427.22
2022-08-30T01:57:33.434Z,101426.38
2022-08-30T02:00:00.007Z,101413.25
2022-08-30T02:02:28.890Z,101425.56
2022-08-30T02:04:56.817Z,101429.72
2022-08-30T02:07:24.851Z,101433.19
2022-08-30T02:09:52.672Z,101435.00
2022-08-30T02:12:19.714Z,101428.88
2022-08-30T02:14:46.245Z,101435.03
2022-08-30T02:17:14.192Z,101446.47
2022-08-30T02:19:41.616Z,101441.31
2022-08-30T02:22:08.223Z,101438.69
2022-08-30T02:24:34.747Z,101435.16
2022-08-30T02:27:01.540Z,101437.81
2022-08-30T02:29:28.191Z,101443.94
2022-08-30T02:31:54.682Z,101442.22
2022-08-30T02:34:21.378Z,101432.56
2022-08-30T02:36:47.969Z,101440.47
2022-08-30T02:39:14.521Z,101439.59
2022-08-30T02:41:42.254Z,101440.44
2022-08-30T02:44:10.689Z,101442.88
2022-08-30T02:46:37.731Z,101439.44
2022-08-30T02:51:52.094Z,101432.53
2022-08-30T02:54:20.123Z,101428.97
2022-08-30T02:56:48.124Z,101428.00
2022-08-30T02:59:16.259Z,101440.25
2022-08-30T03:01:43.114Z,101436.75
2022-08-30T03:04:10.175Z,101434.81
2022-08-30T03:06:37.305Z,101431.44
2022-08-30T03:09:04.272Z,101425.31
2022-08-30T03:11:30.978Z,101422.72
2022-08-30T03:13:57.470Z,101424.47
2022-08-30T03:16:24.012Z,101412.19
2022-08-30T03:18:50.537Z,101414.78
2022-08-30T03:21:17.819Z,101411.34
2022-08-30T03:23:44.954Z,101410.56
2022-08-30T03:26:14.683Z,101412.28
2022-08-30T03:28:44.398Z,101415.00
2022-08-30T03:31:12.024Z,101415.88
2022-08-30T03:33:40.403Z,101423.75
2022-08-30T03:36:08.100Z,101408.00
2022-08-30T03:38:34.823Z,101421.06
2022-08-30T03:41:01.554Z,101419.34
2022-08-30T03:43:28.538Z,101413.16
2022-08-30T03:45:56.419Z,101413.16
2022-08-30T03:48:22.930Z,101421.06
2022-08-30T03:50:49.439Z,101416.66
2022-08-30T03:53:16.114Z,101421.94
2022-08-30T03:55:42.871Z,101422.84
2022-08-30T03:58:09.425Z,101404.47
2022-08-30T04:00:36.174Z,101409.69
2022-08-30T04:03:02.647Z,101421.09
2022-08-30T04:05:29.484Z,101405.28
2022-08-30T04:07:55.957Z,101409.66
2022-08-30T04:10:22.520Z,101409.72
2022-08-30T04:12:50.120Z,101418.50
2022-08-30T04:15:18.385Z,101415.00
2022-08-30T04:17:45.064Z,101422.00
2022-08-30T04:20:11.884Z,101417.66
2022-08-30T04:22:38.428Z,101418.56
2022-08-30T04:25:06.661Z,101423.75
2022-08-30T04:27:33.269Z,101423.72
2022-08-30T04:30:00.225Z,101418.47
2022-08-30T04:32:27.310Z,101424.56
2022-08-30T04:34:59.624Z,101427.22
2022-08-30T04:37:26.300Z,101428.88
2022-08-30T04:39:57.701Z,101431.31
2022-08-30T04:42:24.750Z,101427.94
2022-08-30T04:44:51.511Z,101437.47
2022-08-30T04:47:18.680Z,101448.88
2022-08-30T04:49:45.359Z,101438.28
2022-08-30T04:52:11.901Z,101446.25
2022-08-30T04:54:38.528Z,101440.91
2022-08-30T04:57:06.578Z,101438.28
2022-08-30T04:59:33.387Z,101442.66
2022-08-30T05:02:00.207Z,101445.22
2022-08-30T05:04:26.843Z,101457.34
2022-08-30T05:06:53.839Z,101451.91
2022-08-30T05:09:21.609Z,101452.00
2022-08-30T05:11:48.712Z,101457.13
2022-08-30T05:14:15.299Z,101456.47
2022-08-30T05:16:42.235Z,101451.22
2022-08-30T05:19:09.352Z,101450.44
2022-08-30T05:21:36.031Z,101456.69
2022-08-30T05:24:02.783Z,101462.09
2022-08-30T05:26:32.431Z,101457.75
2022-08-30T05:28:59.265Z,101462.19
2022-08-30T05:31:32.567Z,101450.78
2022-08-30T05:33:59.680Z,101461.34
2022-08-30T05:36:28.953Z,101463.06
2022-08-30T05:38:56.096Z,101462.25
2022-08-30T05:41:26.546Z,101463.94
2022-08-30T05:43:55.774Z,101468.38
2022-08-30T05:46:22.439Z,101468.25
2022-08-30T05:48:49.991Z,101479.75
2022-08-30T05:51:22.736Z,101469.22
2022-08-30T05:53:50.241Z,101470.00
2022-08-30T05:56:20.095Z,101470.91
2022-08-30T05:58:47.661Z,101462.25
2022-08-30T06:01:26.858Z,101478.97
2022-08-30T06:03:55.154Z,101471.09
2022-08-30T06:06:21.718Z,101478.13
2022-08-30T06:08:48.987Z,101481.56
2022-08-30T06:11:19.264Z,101483.28
2022-08-30T06:13:46.283Z,101470.22
2022-08-30T06:16:14.947Z,101474.56
2022-08-30T06:18:41.546Z,101473.69
2022-08-30T06:21:11.156Z,101466.63
2022-08-30T06:23:41.093Z,101470.25
2022-08-30T06:26:08.079Z,101472.91
2022-08-30T06:28:34.891Z,101471.16
2022-08-30T06:31:01.463Z,101479.78
2022-08-30T06:33:28.038Z,101478.13
2022-08-30T06:35:58.806Z,101479.91
2022-08-30T06:38:26.584Z,101486.03
2022-08-30T06:40:53.060Z,101492.94
2022-08-30T06:43:20.795Z,101495.53
2022-08-30T06:45:47.493Z,101484.97
2022-08-30T06:48:14.036Z,101485.06
2022-08-30T06:50:42.042Z,101482.34
2022-08-30T06:53:09.676Z,101490.38
2022-08-30T06:55:37.343Z,101497.31
2022-08-30T06:58:04.740Z,101495.66
2022-08-30T07:00:31.292Z,101495.69
2022-08-30T07:02:58.554Z,101495.59
2022-08-30T07:05:25.033Z,101496.53
2022-08-30T07:07:53.325Z,101508.81
2022-08-30T07:10:21.414Z,101505.31
2022-08-30T07:12:48.578Z,101499.13
2022-08-30T07:15:15.084Z,101513.19
2022-08-30T07:18:00.729Z,101515.00
2022-08-30T07:20:27.290Z,101518.50
2022-08-30T07:22:53.795Z,101515.84
2022-08-30T07:25:20.383Z,101512.38
2022-08-30T07:27:46.903Z,101507.09
2022-08-30T07:30:14.106Z,101519.38
2022-08-30T07:32:40.945Z,101525.50
2022-08-30T07:35:07.781Z,101523.75
2022-08-30T07:37:34.357Z,101514.97
2022-08-30T07:40:00.931Z,101508.84
2022-08-30T07:42:27.453Z,101522.84
2022-08-30T07:44:56.790Z,101521.91
2022-08-30T07:47:23.622Z,101523.69
2022-08-30T07:49:50.229Z,101528.94
2022-08-30T07:52:16.800Z,101521.84
2022-08-30T07:54:43.311Z,101524.53
2022-08-30T07:57:09.913Z,101521.91
2022-08-30T07:59:36.889Z,101514.88
2022-08-30T08:02:04.108Z,101511.31
2022-08-30T08:04:30.711Z,101522.56
2022-08-30T08:06:57.203Z,101518.94
2022-08-30T08:09:23.675Z,101524.38
2022-08-30T08:11:50.136Z,101518.94
2022-08-30T08:14:16.666Z,101516.31
2022-08-30T08:16:44.764Z,101517.97
2022-08-30T08:19:12.277Z,101512.56
2022-08-30T08:21:38.871Z,101513.41
2022-08-30T08:24:05.956Z,101526.03
2022-08-30T08:26:36.704Z,101520.59
2022-08-30T08:29:04.676Z,101526.88
2022-08-30T08:31:33.369Z,101514.25
2022-08-30T08:36:33.977Z,101514.38
2022-08-30T08:39:01.002Z,101511.66
2022-08-30T08:41:39.841Z,101515.06
2022-08-30T08:44:14.129Z,101516.63
2022-08-30T08:46:58.243Z,101516.63
2022-08-30T08:49:25.347Z,101507.97
2022-08-30T08:52:10.451Z,101515.66
2022-08-30T08:54:53.888Z,101502.34
2022-08-30T08:57:24.718Z,101526.22
2022-08-30T08:59:54.276Z,101515.25
2022-08-30T09:02:28.528Z,101520.44
2022-08-30T09:04:59.519Z,101512.31
2022-08-30T09:07:39.870Z,101507.06
2022-08-30T09:10:07.278Z,101511.44
2022-08-30T09:12:34.121Z,101518.56
2022-08-30T09:15:17.973Z,101512.56
2022-08-30T09:18:19.374Z,101513.44
2022-08-30T09:20:49.062Z,101516.56
2022-08-30T09:23:15.449Z,101516.56
2022-08-30T09:26:06.665Z,101522.41
2022-08-30T09:28:43.164Z,101512.31
2022-08-30T09:31:48.755Z,101512.47
2022-08-30T09:34:21.091Z,101516.09
2022-08-30T09:36:52.827Z,101513.63
2022-08-30T09:39:19.336Z,101514.22
2022-08-30T09:41:50.244Z,101509.47
2022-08-30T09:44:18.524Z,101505.56
2022-08-30T09:46:48.799Z,101503.84
2022-08-30T09:49:37.974Z,101509.47
2022-08-30T09:52:16.901Z,101501.34
2022-08-30T09:55:08.129Z,101506.00
2022-08-30T09:57:37.097Z,101497.06
2022-08-30T10:00:15.197Z,101496.44
2022-08-30T10:03:07.552Z,101488.78
2022-08-30T10:05:52.018Z,101491.63
2022-08-30T10:08:45.428Z,101490.97
2022-08-30T10:11:16.007Z,101485.94
2022-08-30T10:13:56.300Z,101494.53
2022-08-30T10:17:04.382Z,101494.97
2022-08-30T10:19:57.611Z,101494.03
2022-08-30T10:22:52.337Z,101480.41
2022-08-30T10:25:30.231Z,101483.53
2022-08-30T10:28:03.688Z,101472.69
2022-08-30T10:30:33.642Z,101469.75
2022-08-30T10:33:10.098Z,101491.25
2022-08-30T10:35:43.017Z,101482.25
2022-08-30T10:38:21.802Z,101476.63
2022-08-30T10:41:13.937Z,101484.28
2022-08-30T10:43:54.640Z,101485.06
2022-08-30T10:46:33.038Z,101479.63
2022-08-30T10:49:04.943Z,101476.28
2022-08-30T10:51:42.007Z,101482.28
2022-08-30T10:54:18.648Z,101479.31
2022-08-30T10:56:49.399Z,101471.88
2022-08-30T10:59:18.449Z,101483.03
2022-08-30T11:02:06.582Z,101475.50
2022-08-30T11:05:07.178Z,101476.13
2022-08-30T11:07:52.215Z,101477.81
2022-08-30T11:10:29.122Z,101468.81
2022-08-30T11:13:09.723Z,101472.28
2022-08-30T11:15:52.517Z,101467.06
2022-08-30T11:18:20.247Z,101462.22
2022-08-30T11:20:53.225Z,101458.69
2022-08-30T11:23:29.119Z,101454.69
2022-08-30T11:26:15.984Z,101454.47
2022-08-30T11:28:47.280Z,101459.94
2022-08-30T11:31:23.603Z,101459.94
2022-08-30T11:33:52.438Z,101461.38
2022-08-30T11:36:46.273Z,101465.88
2022-08-30T11:39:49.083Z,101458.03
2022-08-30T11:42:53.703Z,101467.97
2022-08-30T11:45:24.673Z,101455.81
2022-08-30T11:48:05.655Z,101454.72
2022-08-30T11:50:55.146Z,101458.03
2022-08-30T11:53:27.476Z,101454.09
2022-08-30T11:56:04.204Z,101457.69
2022-08-30T11:58:54.485Z,101455.13
2022-08-30T12:01:51.535Z,101447.16
2022-08-30T12:04:22.834Z,101449.63
2022-08-30T12:06:59.021Z,101440.41
2022-08-30T12:09:26.308Z,101445.16
2022-08-30T12:11:52.770Z,101426.75
2022-08-30T12:14:34.978Z,101430.69
2022-08-30T12:17:22.181Z,101429.16
2022-08-30T12:19:50.536Z,101436.81
2022-08-30T12:22:18.479Z,101438.47
2022-08-30T12:24:51.717Z,101435.81
2022-08-30T12:27:23.292Z,101428.09
2022-08-30T12:30:02.941Z,101434.69
2022-08-30T12:32:31.157Z,101415.81
2022-08-30T12:35:00.244Z,101415.47
2022-08-30T12:37:34.104Z,101423.88
2022-08-30T12:40:15.141Z,101415.22
2022-08-30T12:42:51.289Z,101414.94
2022-08-30T12:45:21.368Z,101421.25
2022-08-30T12:47:55.144Z,101415.88
2022-08-30T12:50:28.063Z,101409.28
2022-08-30T12:53:01.273Z,101408.03
2022-08-30T12:55:33.866Z,101407.66
2022-08-30T12:58:04.108Z,101402.31
2022-08-30T13:00:39.716Z,101414.56
2022-08-30T13:03:36.699Z,101411.63
2022-08-30T13:06:07.921Z,101400.19
2022-08-30T13:08:38.260Z,101402.91
2022-08-30T13:11:08.812Z,101404.00
2022-08-30T13:13:44.578Z,101404.84
2022-08-30T13:16:24.653Z,101396.00
2022-08-30T13:19:15.229Z,101399.41
2022-08-30T13:21:53.760Z,101389.38
2022-08-30T13:24:24.804Z,101379.50
2022-08-30T13:26:54.296Z,101394.22
2022-08-30T13:29:25.371Z,101393.59
2022-08-30T13:31:52.242Z,101395.44
2022-08-30T13:34:22.248Z,101392.47
2022-08-30T13:36:53.286Z,101383.22
2022-08-30T13:39:21.696Z,101382.75
2022-08-30T13:41:48.901Z,101379.13
2022-08-30T13:44:15.955Z,101385.19
2022-08-30T13:46:52.294Z,101390.72
2022-08-30T13:52:22.953Z,101380.41
2022-08-30T13:54:54.837Z,101385.38
2022-08-30T14:00:18.968Z,101377.31
2022-08-30T14:02:54.158Z,101382.19
2022-08-30T14:05:48.330Z,101387.41
2022-08-30T14:11:06.159Z,101373.63
2022-08-30T14:13:32.870Z,101369.44
2022-08-30T14:18:47.971Z,101371.41
2022-08-30T14:21:15.606Z,101373.47
2022-08-30T14:23:42.161Z,101369.41
2022-08-30T14:26:14.317Z,101364.06
2022-08-30T14:28:44.832Z,101375.78
2022-08-30T14:31:12.260Z,101369.25
2022-08-30T14:33:39.978Z,101370.22
2022-08-30T14:36:12.487Z,101374.75
2022-08-30T14:38:42.625Z,101366.53
2022-08-30T14:41:10.747Z,101362.97
2022-08-30T14:43:39.620Z,101374.88
2022-08-30T14:46:06.225Z,101364.59
2022-08-30T14:48:32.870Z,101357.31
2022-08-30T14:50:59.478Z,101354.50
2022-08-30T14:53:26.390Z,101368.25
2022-08-30T14:55:52.904Z,101362.13
2022-08-30T14:58:19.531Z,101363.91
2022-08-30T15:00:52.790Z,101359.59
2022-08-30T15:03:19.843Z,101363.84
2022-08-30T15:05:53.015Z,101364.91
2022-08-30T15:08:19.900Z,101366.56
2022-08-30T15:10:47.410Z,101357.31
2022-08-30T15:13:14.084Z,101352.06
2022-08-30T15:15:42.705Z,101355.97
2022-08-30T15:18:09.659Z,101345.00
2022-08-30T15:20:36.425Z,101348.53
2022-08-30T15:23:03.024Z,101345.03
2022-08-30T15:25:31.784Z,101340.53
2022-08-30T15:27:58.321Z,101352.06
2022-08-30T15:30:25.201Z,101351.72
2022-08-30T15:32:51.791Z,101324.81
2022-08-30T15:35:18.482Z,101336.34
2022-08-30T15:37:45.052Z,101337.00
2022-08-30T15:40:11.725Z,101337.53
2022-08-30T15:42:39.621Z,101327.78
2022-08-30T15:45:06.915Z,101322.78
2022-08-30T15:47:33.493Z,101316.84
2022-08-30T15:50:04.109Z,101319.31
2022-08-30T15:52:31.118Z,101328.56
2022-08-30T15:54:58.375Z,101321.28
2022-08-30T15:57:25.493Z,101323.38
2022-08-30T15:59:54.351Z,101322.78
2022-08-30T16:02:21.821Z,101322.59
2022-08-30T16:04:54.126Z,101316.00
2022-08-30T16:07:20.642Z,101319.69
2022-08-30T16:09:47.553Z,101323.84
2022-08-30T16:12:22.336Z,101311.28
2022-08-30T16:14:50.451Z,101303.91
2022-08-30T16:17:16.973Z,101303.13
2022-08-30T16:19:44.823Z,101296.72
2022-08-30T16:22:11.580Z,101300.22
2022-08-30T16:24:39.579Z,101302.81
2022-08-30T16:27:08.779Z,101292.19
2022-08-30T16:29:35.608Z,101294.13
2022-08-30T16:32:02.318Z,101296.13
2022-08-30T16:34:28.917Z,101299.84
2022-08-30T16:36:55.485Z,101296.47
2022-08-30T16:39:22.309Z,101293.72
2022-08-30T16:41:49.092Z,101290.22
2022-08-30T16:44:18.546Z,101293.81
2022-08-30T16:46:52.971Z,101291.22
2022-08-30T16:49:20.275Z,101289.06
2022-08-30T16:51:50.303Z,101290.88
2022-08-30T16:54:17.559Z,101288.75
2022-08-30T16:56:45.707Z,101290.91
2022-08-30T16:59:13.155Z,101295.03
2022-08-30T17:01:42.309Z,101300.84
2022-08-30T17:04:10.407Z,101298.72
2022-08-30T17:06:37.359Z,101295.28
2022-08-30T17:09:06.170Z,101305.34
2022-08-30T17:11:34.341Z,101297.28
2022-08-30T17:14:01.613Z,101289.56
2022-08-30T17:16:29.911Z,101299.56
2022-08-30T17:19:00.502Z,101301.41
2022-08-30T17:21:29.199Z,101295.66
2022-08-30T17:24:01.886Z,101294.81
2022-08-30T17:26:35.698Z,101293.34
2022-08-30T17:29:03.460Z,101294.63
2022-08-30T17:31:31.125Z,101290.34
2022-08-30T17:34:03.194Z,101291.31
2022-08-30T17:36:48.161Z,101298.16
2022-08-30T17:39:16.265Z,101300.22
2022-08-30T17:41:49.857Z,101307.78
2022-08-30T17:44:33.307Z,101305.13
2022-08-30T17:47:00.325Z,101307.53
2022-08-30T17:49:28.951Z,101319.78
2022-08-30T17:51:57.278Z,101319.94
2022-08-30T17:54:26.648Z,101317.28
2022-08-30T17:56:53.568Z,101318.41
2022-08-30T17:59:25.409Z,101319.22
2022-08-30T18:01:53.816Z,101319.28
2022-08-30T18:04:21.145Z,101322.44
2022-08-30T18:06:51.396Z,101325.94
2022-08-30T18:09:18.225Z,101330.25
2022-08-30T18:11:44.710Z,101322.34
2022-08-30T18:14:11.538Z,101317.09
2022-08-30T18:16:53.174Z,101330.81
2022-08-30T18:19:26.208Z,101335.25
2022-08-30T18:21:53.709Z,101339.44
2022-08-30T18:24:21.437Z,101346.28
2022-08-30T18:26:48.154Z,101338.19
2022-08-30T18:29:18.987Z,101346.44
2022-08-30T18:31:55.362Z,101339.59
2022-08-30T18:34:21.832Z,101347.94
2022-08-30T18:36:48.755Z,101340.81
2022-08-30T18:39:15.250Z,101347.25
2022-08-30T18:41:43.231Z,101359.28
2022-08-30T18:44:26.814Z,101353.91
2022-08-30T18:46:56.682Z,101349.78
2022-08-30T18:49:24.956Z,101350.81
2022-08-30T18:51:51.475Z,101350.91
2022-08-30T18:54:18.738Z,101348.03
2022-08-30T18:56:45.782Z,101350.53
2022-08-30T18:59:12.998Z,101360.13
2022-08-30T19:01:40.385Z,101351.22
2022-08-30T19:04:07.705Z,101357.22
2022-08-30T19:06:34.568Z,101369.38
2022-08-30T19:09:01.350Z,101370.50
2022-08-30T19:11:28.020Z,101358.19
2022-08-30T19:13:54.965Z,101370.38
2022-08-30T19:16:22.007Z,101366.31
2022-08-30T19:18:48.781Z,101371.81
2022-08-30T19:21:15.482Z,101375.16
2022-08-30T19:23:43.559Z,101369.53
2022-08-30T19:26:10.936Z,101362.00
2022-08-30T19:28:37.863Z,101369.78
2022-08-30T19:31:04.749Z,101365.13
2022-08-30T19:33:33.428Z,101376.81
2022-08-30T19:36:00.574Z,101381.69
2022-08-30T19:38:27.282Z,101376.63
2022-08-30T19:41:00.924Z,101383.22
2022-08-30T19:43:28.292Z,101376.81
2022-08-30T19:45:58.840Z,101381.47
2022-08-30T19:48:29.455Z,101382.34
2022-08-30T19:51:00.134Z,101389.25
2022-08-30T19:53:27.084Z,101382.94
2022-08-30T19:55:53.902Z,101380.28
2022-08-30T19:58:20.358Z,101378.69
2022-08-30T20:01:01.164Z,101366.94
2022-08-30T20:03:34.016Z,101367.25
2022-08-30T20:06:01.326Z,101383.09
2022-08-30T20:08:29.970Z,101375.16
2022-08-30T20:10:57.045Z,101384.84
2022-08-30T20:13:24.077Z,101376.09
2022-08-30T20:15:55.763Z,101379.25
2022-08-30T20:18:23.387Z,101382.94
2022-08-30T20:20:50.260Z,101387.78
2022-08-30T20:23:21.653Z,101385.22
2022-08-30T20:25:51.920Z,101388.66
2022-08-30T20:28:20.525Z,101390.56
2022-08-30T20:30:48.158Z,101388.44
2022-08-30T20:33:14.690Z,101390.38
2022-08-30T20:35:48.740Z,101381.50
2022-08-30T20:38:21.177Z,101383.34
2022-08-30T20:40:50.358Z,101384.69
2022-08-30T20:43:22.289Z,101381.75
2022-08-30T20:45:49.029Z,101388.69
2022-08-30T20:48:15.981Z,101389.38
2022-08-30T20:50:43.482Z,101383.25
2022-08-30T20:53:10.955Z,101395.56
2022-08-30T20:55:46.700Z,101385.91
2022-08-30T20:58:14.639Z,101395.72
2022-08-30T21:00:45.724Z,101393.84
2022-08-30T21:03:27.792Z,101396.97
2022-08-30T21:05:54.891Z,101390.97
2022-08-30T21:08:21.459Z,101404.16
2022-08-30T21:10:48.050Z,101398.94
2022-08-30T21:13:14.752Z,101403.13
2022-08-30T21:15:45.688Z,101417.28
2022-08-30T21:18:13.658Z,101413.16
2022-08-30T21:20:40.315Z,101418.34
2022-08-30T21:23:06.915Z,101430.56
2022-08-30T21:25:34.132Z,101428.03
2022-08-30T21:28:00.940Z,101416.66
2022-08-30T21:30:27.452Z,101431.50
2022-08-30T21:32:55.082Z,101430.84
2022-08-30T21:35:45.041Z,101425.78
2022-08-30T21:38:11.526Z,101410.09
2022-08-30T21:40:38.213Z,101424.78
2022-08-30T21:43:06.043Z,101419.53
2022-08-30T21:45:32.734Z,101425.84
2022-08-30T21:47:59.359Z,101419.72
2022-08-30T21:50:25.868Z,101427.44
2022-08-30T21:52:52.797Z,101415.41
2022-08-30T21:55:19.272Z,101421.53
2022-08-30T21:57:45.753Z,101421.72
2022-08-30T22:00:18.855Z,101420.56
2022-08-30T22:02:45.581Z,101429.50
2022-08-30T22:05:15.717Z,101430.28
2022-08-30T22:07:42.203Z,101437.03
2022-08-30T22:10:10.489Z,101432.19
2022-08-30T22:12:37.032Z,101434.13
2022-08-30T22:15:05.004Z,101442.63
2022-08-30T22:17:31.754Z,101435.78
2022-08-30T22:19:58.229Z,101445.38
2022-08-30T22:22:24.770Z,101453.19
2022-08-30T22:24:51.328Z,101452.44
2022-08-30T22:27:17.835Z,101448.91
2022-08-30T22:29:44.321Z,101453.50
2022-08-30T22:32:10.871Z,101457.84
2022-08-30T22:34:38.702Z,101458.06
2022-08-30T22:37:05.197Z,101457.81
2022-08-30T22:39:31.742Z,101459.59
2022-08-30T22:41:58.233Z,101457.75
2022-08-30T22:44:25.421Z,101455.22
2022-08-30T22:46:51.884Z,101456.06
2022-08-30T22:49:18.360Z,101464.19
2022-08-30T22:51:44.839Z,101469.59
2022-08-30T22:54:11.381Z,101461.69
2022-08-30T22:56:39.654Z,101459.91
2022-08-30T22:59:06.517Z,101460.00
2022-08-30T23:01:39.865Z,101470.56
2022-08-30T23:04:08.162Z,101471.38
2022-08-30T23:06:35.274Z,101461.78
2022-08-30T23:09:03.297Z,101461.75
2022-08-30T23:11:30.696Z,101478.63
2022-08-30T23:14:00.949Z,101481.06
2022-08-30T23:16:27.440Z,101477.50
2022-08-30T23:18:54.002Z,101472.31
2022-08-30T23:21:26.579Z,101479.44
2022-08-30T23:24:13.697Z,101491.72
2022-08-30T23:27:00.514Z,101486.38
2022-08-30T23:29:46.253Z,101481.16
2022-08-30T23:32:32.141Z,101478.53
2022-08-30T23:35:17.385Z,101481.13
2022-08-30T23:38:02.838Z,101477.78
2022-08-30T23:40:48.175Z,101483.09
2022-08-30T23:43:33.364Z,101477.66
2022-08-30T23:46:19.478Z,101483.03
2022-08-30T23:49:06.046Z,101477.84
2022-08-30T23:51:51.801Z,101477.00
2022-08-30T23:54:36.762Z,101477.06
2022-08-30T23:57:23.313Z,101479.56
